sensor_id;sensor_type;location;lat;lon;timestamp;P1;durP1;ratioP1;P2;durP2;ratioP2
57249;SDS011;43102;52.014;-0.680;2023-02-26T00:00:05;7.50;;;4.30;;
57249;SDS011;43102;52.014;-0.680;2023-02-26T00:01:01;7.50;;;4.30;;
57249;SDS011;43102;52.014;-0.680;2023-02-26T00:02:01;7.50;;;4.30;;
57249;SDS011;43102;52.014;-0.680;2023-02-26T00:03:00;7.50;;;4.30;;
57249;SDS011;43102;52.014;-0.680;2023-02-26T00:04:02;7.50;;;4.30;;
57249;SDS011;43102;52.014;-0.680;2023-02-26T00:05:00;7.50;;;4.30;;
57249;SDS011;43102;52.014;-0.680;2023-02-26T00:06:01;7.50;;;4.30;;
57249;SDS011;43102;52.014;-0.680;2023-02-26T00:07:01;7.50;;;4.30;;
57249;SDS011;43102;52.014;-0.680;2023-02-26T00:08:01;7.50;;;4.30;;
57249;SDS011;43102;52.014;-0.680;2023-02-26T00:09:02;6.00;;;3.10;;
57249;SDS011;43102;52.014;-0.680;2023-02-26T00:10:02;6.00;;;3.10;;
57249;SDS011;43102;52.014;-0.680;2023-02-26T00:11:01;6.00;;;3.10;;
57249;SDS011;43102;52.014;-0.680;2023-02-26T00:12:01;6.00;;;3.10;;
57249;SDS011;43102;52.014;-0.680;2023-02-26T00:13:01;6.00;;;3.10;;
57249;SDS011;43102;52.014;-0.680;2023-02-26T00:14:01;6.00;;;3.10;;
57249;SDS011;43102;52.014;-0.680;2023-02-26T00:15:01;6.00;;;3.10;;
57249;SDS011;43102;52.014;-0.680;2023-02-26T00:16:01;6.00;;;3.10;;
57249;SDS011;43102;52.014;-0.680;2023-02-26T00:18:06;6.00;;;3.10;;
57249;SDS011;43102;52.014;-0.680;2023-02-26T00:19:03;6.00;;;3.10;;
57249;SDS011;43102;52.014;-0.680;2023-02-26T00:20:01;6.00;;;3.10;;
57249;SDS011;43102;52.014;-0.680;2023-02-26T00:21:01;6.00;;;3.10;;
57249;SDS011;43102;52.014;-0.680;2023-02-26T00:22:01;6.00;;;3.10;;
57249;SDS011;43102;52.014;-0.680;2023-02-26T00:23:01;6.00;;;3.10;;
57249;SDS011;43102;52.014;-0.680;2023-02-26T00:24:01;6.00;;;3.10;;
57249;SDS011;43102;52.014;-0.680;2023-02-26T00:25:00;6.00;;;3.10;;
57249;SDS011;43102;52.014;-0.680;2023-02-26T00:26:00;6.00;;;3.10;;
57249;SDS011;43102;52.014;-0.680;2023-02-26T00:27:00;6.00;;;3.10;;
57249;SDS011;43102;52.014;-0.680;2023-02-26T00:28:01;6.00;;;3.10;;
57249;SDS011;43102;52.014;-0.680;2023-02-26T00:29:02;6.00;;;3.10;;
57249;SDS011;43102;52.014;-0.680;2023-02-26T00:30:02;6.00;;;3.10;;
57249;SDS011;43102;52.014;-0.680;2023-02-26T00:31:01;6.00;;;3.10;;
57249;SDS011;43102;52.014;-0.680;2023-02-26T00:32:01;6.00;;;3.10;;
57249;SDS011;43102;52.014;-0.680;2023-02-26T00:33:01;6.00;;;3.10;;
57249;SDS011;43102;52.014;-0.680;2023-02-26T00:34:01;6.00;;;3.10;;
57249;SDS011;43102;52.014;-0.680;2023-02-26T00:35:01;6.00;;;3.10;;
57249;SDS011;43102;52.014;-0.680;2023-02-26T00:36:20;6.00;;;3.10;;
57249;SDS011;43102;52.014;-0.680;2023-02-26T00:38:06;6.00;;;3.10;;
57249;SDS011;43102;52.014;-0.680;2023-02-26T00:39:08;7.20;;;2.80;;
57249;SDS011;43102;52.014;-0.680;2023-02-26T00:41:00;7.20;;;2.80;;
57249;SDS011;43102;52.014;-0.680;2023-02-26T00:42:01;7.20;;;2.80;;
57249;SDS011;43102;52.014;-0.680;2023-02-26T00:43:02;7.20;;;2.80;;
57249;SDS011;43102;52.014;-0.680;2023-02-26T00:44:01;7.20;;;2.80;;
57249;SDS011;43102;52.014;-0.680;2023-02-26T00:45:01;7.20;;;2.80;;
57249;SDS011;43102;52.014;-0.680;2023-02-26T00:46:02;7.20;;;2.80;;
57249;SDS011;43102;52.014;-0.680;2023-02-26T00:49:08;7.20;;;2.80;;
57249;SDS011;43102;52.014;-0.680;2023-02-26T00:51:06;7.20;;;2.80;;
57249;SDS011;43102;52.014;-0.680;2023-02-26T00:52:04;7.20;;;2.80;;
57249;SDS011;43102;52.014;-0.680;2023-02-26T00:55:00;7.20;;;2.80;;
57249;SDS011;43102;52.014;-0.680;2023-02-26T00:56:00;7.20;;;2.80;;
57249;SDS011;43102;52.014;-0.680;2023-02-26T00:57:03;7.20;;;2.80;;
57249;SDS011;43102;52.014;-0.680;2023-02-26T00:58:01;7.20;;;2.80;;
57249;SDS011;43102;52.014;-0.680;2023-02-26T00:59:00;7.20;;;2.80;;
57249;SDS011;43102;52.014;-0.680;2023-02-26T01:00:01;7.20;;;2.80;;
57249;SDS011;43102;52.014;-0.680;2023-02-26T01:01:00;7.20;;;2.80;;
57249;SDS011;43102;52.014;-0.680;2023-02-26T01:02:00;7.20;;;2.80;;
57249;SDS011;43102;52.014;-0.680;2023-02-26T01:03:01;7.20;;;2.80;;
57249;SDS011;43102;52.014;-0.680;2023-02-26T01:04:01;7.20;;;2.80;;
57249;SDS011;43102;52.014;-0.680;2023-02-26T01:05:02;7.20;;;2.80;;
57249;SDS011;43102;52.014;-0.680;2023-02-26T01:06:01;7.20;;;2.80;;
57249;SDS011;43102;52.014;-0.680;2023-02-26T01:07:01;7.20;;;2.80;;
57249;SDS011;43102;52.014;-0.680;2023-02-26T01:08:13;6.60;;;2.40;;
57249;SDS011;43102;52.014;-0.680;2023-02-26T01:09:09;6.60;;;2.40;;
57249;SDS011;43102;52.014;-0.680;2023-02-26T01:10:01;6.60;;;2.40;;
57249;SDS011;43102;52.014;-0.680;2023-02-26T01:11:01;6.60;;;2.40;;
57249;SDS011;43102;52.014;-0.680;2023-02-26T01:12:04;6.60;;;2.40;;
57249;SDS011;43102;52.014;-0.680;2023-02-26T01:13:01;6.60;;;2.40;;
57249;SDS011;43102;52.014;-0.680;2023-02-26T01:14:01;6.60;;;2.40;;
57249;SDS011;43102;52.014;-0.680;2023-02-26T01:15:01;6.60;;;2.40;;
57249;SDS011;43102;52.014;-0.680;2023-02-26T01:16:06;6.60;;;2.40;;
57249;SDS011;43102;52.014;-0.680;2023-02-26T01:17:39;6.60;;;2.40;;
57249;SDS011;43102;52.014;-0.680;2023-02-26T01:18:12;6.60;;;2.40;;
57249;SDS011;43102;52.014;-0.680;2023-02-26T01:19:07;6.60;;;2.40;;
57249;SDS011;43102;52.014;-0.680;2023-02-26T01:21:03;6.60;;;2.40;;
57249;SDS011;43102;52.014;-0.680;2023-02-26T01:22:07;6.60;;;2.40;;
57249;SDS011;43102;52.014;-0.680;2023-02-26T01:23:03;6.60;;;2.40;;
57249;SDS011;43102;52.014;-0.680;2023-02-26T01:24:05;6.60;;;2.40;;
57249;SDS011;43102;52.014;-0.680;2023-02-26T01:25:03;6.60;;;2.40;;
57249;SDS011;43102;52.014;-0.680;2023-02-26T01:26:09;6.60;;;2.40;;
57249;SDS011;43102;52.014;-0.680;2023-02-26T01:27:01;6.60;;;2.40;;
57249;SDS011;43102;52.014;-0.680;2023-02-26T01:28:01;6.60;;;2.40;;
57249;SDS011;43102;52.014;-0.680;2023-02-26T01:29:01;6.60;;;2.40;;
57249;SDS011;43102;52.014;-0.680;2023-02-26T01:30:01;6.60;;;2.40;;
57249;SDS011;43102;52.014;-0.680;2023-02-26T01:31:04;6.60;;;2.40;;
57249;SDS011;43102;52.014;-0.680;2023-02-26T01:33:08;6.60;;;2.40;;
57249;SDS011;43102;52.014;-0.680;2023-02-26T01:34:13;6.60;;;2.40;;
57249;SDS011;43102;52.014;-0.680;2023-02-26T01:35:04;6.60;;;2.40;;
57249;SDS011;43102;52.014;-0.680;2023-02-26T01:36:08;6.60;;;2.40;;
57249;SDS011;43102;52.014;-0.680;2023-02-26T01:42:11;11.40;;;3.90;;
57249;SDS011;43102;52.014;-0.680;2023-02-26T01:43:09;11.40;;;3.90;;
57249;SDS011;43102;52.014;-0.680;2023-02-26T01:45:08;11.40;;;3.90;;
57249;SDS011;43102;52.014;-0.680;2023-02-26T01:46:21;11.40;;;3.90;;
57249;SDS011;43102;52.014;-0.680;2023-02-26T01:47:12;11.40;;;3.90;;
57249;SDS011;43102;52.014;-0.680;2023-02-26T01:48:06;11.40;;;3.90;;
57249;SDS011;43102;52.014;-0.680;2023-02-26T01:49:01;11.40;;;3.90;;
57249;SDS011;43102;52.014;-0.680;2023-02-26T01:50:14;11.40;;;3.90;;
57249;SDS011;43102;52.014;-0.680;2023-02-26T01:51:00;11.40;;;3.90;;
57249;SDS011;43102;52.014;-0.680;2023-02-26T01:52:03;11.40;;;3.90;;
57249;SDS011;43102;52.014;-0.680;2023-02-26T01:53:26;11.40;;;3.90;;
57249;SDS011;43102;52.014;-0.680;2023-02-26T01:54:00;11.40;;;3.90;;
57249;SDS011;43102;52.014;-0.680;2023-02-26T01:55:01;11.40;;;3.90;;
57249;SDS011;43102;52.014;-0.680;2023-02-26T01:56:05;11.40;;;3.90;;
57249;SDS011;43102;52.014;-0.680;2023-02-26T01:58:01;11.40;;;3.90;;
57249;SDS011;43102;52.014;-0.680;2023-02-26T01:59:05;11.40;;;3.90;;
57249;SDS011;43102;52.014;-0.680;2023-02-26T02:00:01;11.40;;;3.90;;
57249;SDS011;43102;52.014;-0.680;2023-02-26T02:01:01;11.40;;;3.90;;
57249;SDS011;43102;52.014;-0.680;2023-02-26T02:02:03;11.40;;;3.90;;
57249;SDS011;43102;52.014;-0.680;2023-02-26T02:03:01;11.40;;;3.90;;
57249;SDS011;43102;52.014;-0.680;2023-02-26T02:04:01;11.40;;;3.90;;
57249;SDS011;43102;52.014;-0.680;2023-02-26T02:05:06;11.40;;;3.90;;
57249;SDS011;43102;52.014;-0.680;2023-02-26T02:06:05;11.40;;;3.90;;
57249;SDS011;43102;52.014;-0.680;2023-02-26T02:07:01;11.40;;;3.90;;
57249;SDS011;43102;52.014;-0.680;2023-02-26T02:08:01;11.40;;;3.90;;
57249;SDS011;43102;52.014;-0.680;2023-02-26T02:09:04;9.10;;;3.40;;
57249;SDS011;43102;52.014;-0.680;2023-02-26T02:10:01;9.10;;;3.40;;
57249;SDS011;43102;52.014;-0.680;2023-02-26T02:11:02;9.10;;;3.40;;
57249;SDS011;43102;52.014;-0.680;2023-02-26T02:13:06;9.10;;;3.40;;
57249;SDS011;43102;52.014;-0.680;2023-02-26T02:16:11;9.10;;;3.40;;
57249;SDS011;43102;52.014;-0.680;2023-02-26T02:17:11;9.10;;;3.40;;
57249;SDS011;43102;52.014;-0.680;2023-02-26T02:18:03;9.10;;;3.40;;
57249;SDS011;43102;52.014;-0.680;2023-02-26T02:19:19;9.10;;;3.40;;
57249;SDS011;43102;52.014;-0.680;2023-02-26T02:20:23;9.10;;;3.40;;
57249;SDS011;43102;52.014;-0.680;2023-02-26T02:23:08;9.10;;;3.40;;
57249;SDS011;43102;52.014;-0.680;2023-02-26T02:24:10;9.10;;;3.40;;
57249;SDS011;43102;52.014;-0.680;2023-02-26T02:25:29;9.10;;;3.40;;
57249;SDS011;43102;52.014;-0.680;2023-02-26T02:26:14;9.10;;;3.40;;
57249;SDS011;43102;52.014;-0.680;2023-02-26T02:27:08;9.10;;;3.40;;
57249;SDS011;43102;52.014;-0.680;2023-02-26T02:28:32;9.10;;;3.40;;
57249;SDS011;43102;52.014;-0.680;2023-02-26T02:32:10;9.10;;;3.40;;
57249;SDS011;43102;52.014;-0.680;2023-02-26T02:33:04;9.10;;;3.40;;
57249;SDS011;43102;52.014;-0.680;2023-02-26T02:35:10;9.10;;;3.40;;
57249;SDS011;43102;52.014;-0.680;2023-02-26T02:36:06;9.10;;;3.40;;
57249;SDS011;43102;52.014;-0.680;2023-02-26T02:37:04;9.10;;;3.40;;
57249;SDS011;43102;52.014;-0.680;2023-02-26T02:38:05;9.10;;;3.40;;
57249;SDS011;43102;52.014;-0.680;2023-02-26T02:40:08;8.10;;;3.50;;
57249;SDS011;43102;52.014;-0.680;2023-02-26T02:41:08;8.10;;;3.50;;
57249;SDS011;43102;52.014;-0.680;2023-02-26T02:42:07;8.10;;;3.50;;
57249;SDS011;43102;52.014;-0.680;2023-02-26T02:43:08;8.10;;;3.50;;
57249;SDS011;43102;52.014;-0.680;2023-02-26T02:44:05;8.10;;;3.50;;
57249;SDS011;43102;52.014;-0.680;2023-02-26T02:45:07;8.10;;;3.50;;
57249;SDS011;43102;52.014;-0.680;2023-02-26T02:46:03;8.10;;;3.50;;
57249;SDS011;43102;52.014;-0.680;2023-02-26T02:47:01;8.10;;;3.50;;
57249;SDS011;43102;52.014;-0.680;2023-02-26T02:48:09;8.10;;;3.50;;
57249;SDS011;43102;52.014;-0.680;2023-02-26T02:50:09;8.10;;;3.50;;
57249;SDS011;43102;52.014;-0.680;2023-02-26T02:51:03;8.10;;;3.50;;
57249;SDS011;43102;52.014;-0.680;2023-02-26T02:52:02;8.10;;;3.50;;
57249;SDS011;43102;52.014;-0.680;2023-02-26T02:53:07;8.10;;;3.50;;
57249;SDS011;43102;52.014;-0.680;2023-02-26T02:54:06;8.10;;;3.50;;
57249;SDS011;43102;52.014;-0.680;2023-02-26T02:55:06;8.10;;;3.50;;
57249;SDS011;43102;52.014;-0.680;2023-02-26T02:57:06;8.10;;;3.50;;
57249;SDS011;43102;52.014;-0.680;2023-02-26T02:58:05;8.10;;;3.50;;
57249;SDS011;43102;52.014;-0.680;2023-02-26T03:00:05;8.10;;;3.50;;
57249;SDS011;43102;52.014;-0.680;2023-02-26T03:01:04;8.10;;;3.50;;
57249;SDS011;43102;52.014;-0.680;2023-02-26T03:02:10;8.10;;;3.50;;
57249;SDS011;43102;52.014;-0.680;2023-02-26T03:03:20;8.10;;;3.50;;
57249;SDS011;43102;52.014;-0.680;2023-02-26T03:04:05;8.10;;;3.50;;
57249;SDS011;43102;52.014;-0.680;2023-02-26T03:05:00;8.10;;;3.50;;
57249;SDS011;43102;52.014;-0.680;2023-02-26T03:06:00;8.10;;;3.50;;
57249;SDS011;43102;52.014;-0.680;2023-02-26T03:07:01;8.10;;;3.50;;
57249;SDS011;43102;52.014;-0.680;2023-02-26T03:08:05;8.10;;;3.50;;
57249;SDS011;43102;52.014;-0.680;2023-02-26T03:09:03;9.00;;;4.10;;
57249;SDS011;43102;52.014;-0.680;2023-02-26T03:10:00;9.00;;;4.10;;
57249;SDS011;43102;52.014;-0.680;2023-02-26T03:11:00;9.00;;;4.10;;
57249;SDS011;43102;52.014;-0.680;2023-02-26T03:12:00;9.00;;;4.10;;
57249;SDS011;43102;52.014;-0.680;2023-02-26T03:13:00;9.00;;;4.10;;
57249;SDS011;43102;52.014;-0.680;2023-02-26T03:14:01;9.00;;;4.10;;
57249;SDS011;43102;52.014;-0.680;2023-02-26T03:15:01;9.00;;;4.10;;
57249;SDS011;43102;52.014;-0.680;2023-02-26T03:17:08;9.00;;;4.10;;
57249;SDS011;43102;52.014;-0.680;2023-02-26T03:18:14;9.00;;;4.10;;
57249;SDS011;43102;52.014;-0.680;2023-02-26T03:20:09;9.00;;;4.10;;
57249;SDS011;43102;52.014;-0.680;2023-02-26T03:21:11;9.00;;;4.10;;
57249;SDS011;43102;52.014;-0.680;2023-02-26T03:25:10;9.00;;;4.10;;
57249;SDS011;43102;52.014;-0.680;2023-02-26T03:26:13;9.00;;;4.10;;
57249;SDS011;43102;52.014;-0.680;2023-02-26T03:28:06;9.00;;;4.10;;
57249;SDS011;43102;52.014;-0.680;2023-02-26T03:29:08;9.00;;;4.10;;
57249;SDS011;43102;52.014;-0.680;2023-02-26T03:30:06;9.00;;;4.10;;
57249;SDS011;43102;52.014;-0.680;2023-02-26T03:31:08;9.00;;;4.10;;
57249;SDS011;43102;52.014;-0.680;2023-02-26T03:32:05;9.00;;;4.10;;
57249;SDS011;43102;52.014;-0.680;2023-02-26T03:33:09;9.00;;;4.10;;
57249;SDS011;43102;52.014;-0.680;2023-02-26T03:34:07;9.00;;;4.10;;
57249;SDS011;43102;52.014;-0.680;2023-02-26T03:35:04;9.00;;;4.10;;
57249;SDS011;43102;52.014;-0.680;2023-02-26T03:36:13;9.00;;;4.10;;
57249;SDS011;43102;52.014;-0.680;2023-02-26T03:37:06;9.00;;;4.10;;
57249;SDS011;43102;52.014;-0.680;2023-02-26T03:38:05;9.00;;;4.10;;
57249;SDS011;43102;52.014;-0.680;2023-02-26T03:40:06;13.50;;;3.50;;
57249;SDS011;43102;52.014;-0.680;2023-02-26T03:41:06;13.50;;;3.50;;
57249;SDS011;43102;52.014;-0.680;2023-02-26T03:42:08;13.50;;;3.50;;
57249;SDS011;43102;52.014;-0.680;2023-02-26T03:43:07;13.50;;;3.50;;
57249;SDS011;43102;52.014;-0.680;2023-02-26T03:44:07;13.50;;;3.50;;
57249;SDS011;43102;52.014;-0.680;2023-02-26T03:45:13;13.50;;;3.50;;
57249;SDS011;43102;52.014;-0.680;2023-02-26T03:46:04;13.50;;;3.50;;
57249;SDS011;43102;52.014;-0.680;2023-02-26T03:47:04;13.50;;;3.50;;
57249;SDS011;43102;52.014;-0.680;2023-02-26T03:48:03;13.50;;;3.50;;
57249;SDS011;43102;52.014;-0.680;2023-02-26T03:49:05;13.50;;;3.50;;
57249;SDS011;43102;52.014;-0.680;2023-02-26T03:50:06;13.50;;;3.50;;
57249;SDS011;43102;52.014;-0.680;2023-02-26T03:51:04;13.50;;;3.50;;
57249;SDS011;43102;52.014;-0.680;2023-02-26T03:52:03;13.50;;;3.50;;
57249;SDS011;43102;52.014;-0.680;2023-02-26T03:53:02;13.50;;;3.50;;
57249;SDS011;43102;52.014;-0.680;2023-02-26T03:54:06;13.50;;;3.50;;
57249;SDS011;43102;52.014;-0.680;2023-02-26T03:55:04;13.50;;;3.50;;
57249;SDS011;43102;52.014;-0.680;2023-02-26T03:57:00;13.50;;;3.50;;
57249;SDS011;43102;52.014;-0.680;2023-02-26T03:58:01;13.50;;;3.50;;
57249;SDS011;43102;52.014;-0.680;2023-02-26T03:59:00;13.50;;;3.50;;
57249;SDS011;43102;52.014;-0.680;2023-02-26T04:00:01;13.50;;;3.50;;
57249;SDS011;43102;52.014;-0.680;2023-02-26T04:01:03;13.50;;;3.50;;
57249;SDS011;43102;52.014;-0.680;2023-02-26T04:02:04;13.50;;;3.50;;
57249;SDS011;43102;52.014;-0.680;2023-02-26T04:03:07;13.50;;;3.50;;
57249;SDS011;43102;52.014;-0.680;2023-02-26T04:04:06;13.50;;;3.50;;
57249;SDS011;43102;52.014;-0.680;2023-02-26T04:05:14;13.50;;;3.50;;
57249;SDS011;43102;52.014;-0.680;2023-02-26T04:06:01;13.50;;;3.50;;
57249;SDS011;43102;52.014;-0.680;2023-02-26T04:07:01;13.50;;;3.50;;
57249;SDS011;43102;52.014;-0.680;2023-02-26T04:08:01;13.50;;;3.50;;
57249;SDS011;43102;52.014;-0.680;2023-02-26T04:09:02;10.60;;;3.70;;
57249;SDS011;43102;52.014;-0.680;2023-02-26T04:10:00;10.60;;;3.70;;
57249;SDS011;43102;52.014;-0.680;2023-02-26T04:11:09;10.60;;;3.70;;
57249;SDS011;43102;52.014;-0.680;2023-02-26T04:12:00;10.60;;;3.70;;
57249;SDS011;43102;52.014;-0.680;2023-02-26T04:13:01;10.60;;;3.70;;
57249;SDS011;43102;52.014;-0.680;2023-02-26T04:14:00;10.60;;;3.70;;
57249;SDS011;43102;52.014;-0.680;2023-02-26T04:15:01;10.60;;;3.70;;
57249;SDS011;43102;52.014;-0.680;2023-02-26T04:16:00;10.60;;;3.70;;
57249;SDS011;43102;52.014;-0.680;2023-02-26T04:17:00;10.60;;;3.70;;
57249;SDS011;43102;52.014;-0.680;2023-02-26T04:18:00;10.60;;;3.70;;
57249;SDS011;43102;52.014;-0.680;2023-02-26T04:19:00;10.60;;;3.70;;
57249;SDS011;43102;52.014;-0.680;2023-02-26T04:20:00;10.60;;;3.70;;
57249;SDS011;43102;52.014;-0.680;2023-02-26T04:21:00;10.60;;;3.70;;
57249;SDS011;43102;52.014;-0.680;2023-02-26T04:22:00;10.60;;;3.70;;
57249;SDS011;43102;52.014;-0.680;2023-02-26T04:23:00;10.60;;;3.70;;
57249;SDS011;43102;52.014;-0.680;2023-02-26T04:24:00;10.60;;;3.70;;
57249;SDS011;43102;52.014;-0.680;2023-02-26T04:25:00;10.60;;;3.70;;
57249;SDS011;43102;52.014;-0.680;2023-02-26T04:26:00;10.60;;;3.70;;
57249;SDS011;43102;52.014;-0.680;2023-02-26T04:27:00;10.60;;;3.70;;
57249;SDS011;43102;52.014;-0.680;2023-02-26T04:28:00;10.60;;;3.70;;
57249;SDS011;43102;52.014;-0.680;2023-02-26T04:29:00;10.60;;;3.70;;
57249;SDS011;43102;52.014;-0.680;2023-02-26T04:30:00;10.60;;;3.70;;
57249;SDS011;43102;52.014;-0.680;2023-02-26T04:31:01;10.60;;;3.70;;
57249;SDS011;43102;52.014;-0.680;2023-02-26T04:32:01;10.60;;;3.70;;
57249;SDS011;43102;52.014;-0.680;2023-02-26T04:33:01;10.60;;;3.70;;
57249;SDS011;43102;52.014;-0.680;2023-02-26T04:34:00;10.60;;;3.70;;
57249;SDS011;43102;52.014;-0.680;2023-02-26T04:35:01;10.60;;;3.70;;
57249;SDS011;43102;52.014;-0.680;2023-02-26T04:36:01;10.60;;;3.70;;
57249;SDS011;43102;52.014;-0.680;2023-02-26T04:37:00;10.60;;;3.70;;
57249;SDS011;43102;52.014;-0.680;2023-02-26T04:38:00;10.60;;;3.70;;
57249;SDS011;43102;52.014;-0.680;2023-02-26T04:39:00;7.30;;;3.10;;
57249;SDS011;43102;52.014;-0.680;2023-02-26T04:40:00;7.30;;;3.10;;
57249;SDS011;43102;52.014;-0.680;2023-02-26T04:41:01;7.30;;;3.10;;
57249;SDS011;43102;52.014;-0.680;2023-02-26T04:42:01;7.30;;;3.10;;
57249;SDS011;43102;52.014;-0.680;2023-02-26T04:43:00;7.30;;;3.10;;
57249;SDS011;43102;52.014;-0.680;2023-02-26T04:44:00;7.30;;;3.10;;
57249;SDS011;43102;52.014;-0.680;2023-02-26T04:45:00;7.30;;;3.10;;
57249;SDS011;43102;52.014;-0.680;2023-02-26T04:46:00;7.30;;;3.10;;
57249;SDS011;43102;52.014;-0.680;2023-02-26T04:47:00;7.30;;;3.10;;
57249;SDS011;43102;52.014;-0.680;2023-02-26T04:48:00;7.30;;;3.10;;
57249;SDS011;43102;52.014;-0.680;2023-02-26T04:49:00;7.30;;;3.10;;
57249;SDS011;43102;52.014;-0.680;2023-02-26T04:50:00;7.30;;;3.10;;
57249;SDS011;43102;52.014;-0.680;2023-02-26T04:51:01;7.30;;;3.10;;
57249;SDS011;43102;52.014;-0.680;2023-02-26T04:52:01;7.30;;;3.10;;
57249;SDS011;43102;52.014;-0.680;2023-02-26T04:53:00;7.30;;;3.10;;
57249;SDS011;43102;52.014;-0.680;2023-02-26T04:54:00;7.30;;;3.10;;
57249;SDS011;43102;52.014;-0.680;2023-02-26T04:55:00;7.30;;;3.10;;
57249;SDS011;43102;52.014;-0.680;2023-02-26T04:56:00;7.30;;;3.10;;
57249;SDS011;43102;52.014;-0.680;2023-02-26T04:57:00;7.30;;;3.10;;
57249;SDS011;43102;52.014;-0.680;2023-02-26T04:58:01;7.30;;;3.10;;
57249;SDS011;43102;52.014;-0.680;2023-02-26T04:59:00;7.30;;;3.10;;
57249;SDS011;43102;52.014;-0.680;2023-02-26T05:00:01;7.30;;;3.10;;
57249;SDS011;43102;52.014;-0.680;2023-02-26T05:01:00;7.30;;;3.10;;
57249;SDS011;43102;52.014;-0.680;2023-02-26T05:02:01;7.30;;;3.10;;
57249;SDS011;43102;52.014;-0.680;2023-02-26T05:03:00;7.30;;;3.10;;
57249;SDS011;43102;52.014;-0.680;2023-02-26T05:04:00;7.30;;;3.10;;
57249;SDS011;43102;52.014;-0.680;2023-02-26T05:05:01;7.30;;;3.10;;
57249;SDS011;43102;52.014;-0.680;2023-02-26T05:06:01;7.30;;;3.10;;
57249;SDS011;43102;52.014;-0.680;2023-02-26T05:07:00;7.30;;;3.10;;
57249;SDS011;43102;52.014;-0.680;2023-02-26T05:08:01;7.30;;;3.10;;
57249;SDS011;43102;52.014;-0.680;2023-02-26T05:09:00;10.10;;;4.00;;
57249;SDS011;43102;52.014;-0.680;2023-02-26T05:10:00;10.10;;;4.00;;
57249;SDS011;43102;52.014;-0.680;2023-02-26T05:11:00;10.10;;;4.00;;
57249;SDS011;43102;52.014;-0.680;2023-02-26T05:12:00;10.10;;;4.00;;
57249;SDS011;43102;52.014;-0.680;2023-02-26T05:13:01;10.10;;;4.00;;
57249;SDS011;43102;52.014;-0.680;2023-02-26T05:14:00;10.10;;;4.00;;
57249;SDS011;43102;52.014;-0.680;2023-02-26T05:15:00;10.10;;;4.00;;
57249;SDS011;43102;52.014;-0.680;2023-02-26T05:16:01;10.10;;;4.00;;
57249;SDS011;43102;52.014;-0.680;2023-02-26T05:17:00;10.10;;;4.00;;
57249;SDS011;43102;52.014;-0.680;2023-02-26T05:18:01;10.10;;;4.00;;
57249;SDS011;43102;52.014;-0.680;2023-02-26T05:19:01;10.10;;;4.00;;
57249;SDS011;43102;52.014;-0.680;2023-02-26T05:20:00;10.10;;;4.00;;
57249;SDS011;43102;52.014;-0.680;2023-02-26T05:21:01;10.10;;;4.00;;
57249;SDS011;43102;52.014;-0.680;2023-02-26T05:22:01;10.10;;;4.00;;
57249;SDS011;43102;52.014;-0.680;2023-02-26T05:23:01;10.10;;;4.00;;
57249;SDS011;43102;52.014;-0.680;2023-02-26T05:24:00;10.10;;;4.00;;
57249;SDS011;43102;52.014;-0.680;2023-02-26T05:25:00;10.10;;;4.00;;
57249;SDS011;43102;52.014;-0.680;2023-02-26T05:26:01;10.10;;;4.00;;
57249;SDS011;43102;52.014;-0.680;2023-02-26T05:27:00;10.10;;;4.00;;
57249;SDS011;43102;52.014;-0.680;2023-02-26T05:28:00;10.10;;;4.00;;
57249;SDS011;43102;52.014;-0.680;2023-02-26T05:29:01;10.10;;;4.00;;
57249;SDS011;43102;52.014;-0.680;2023-02-26T05:30:00;10.10;;;4.00;;
57249;SDS011;43102;52.014;-0.680;2023-02-26T05:31:01;10.10;;;4.00;;
57249;SDS011;43102;52.014;-0.680;2023-02-26T05:32:02;10.10;;;4.00;;
57249;SDS011;43102;52.014;-0.680;2023-02-26T05:33:00;10.10;;;4.00;;
57249;SDS011;43102;52.014;-0.680;2023-02-26T05:34:00;10.10;;;4.00;;
57249;SDS011;43102;52.014;-0.680;2023-02-26T05:35:01;10.10;;;4.00;;
57249;SDS011;43102;52.014;-0.680;2023-02-26T05:36:00;10.10;;;4.00;;
57249;SDS011;43102;52.014;-0.680;2023-02-26T05:37:00;10.10;;;4.00;;
57249;SDS011;43102;52.014;-0.680;2023-02-26T05:38:00;10.10;;;4.00;;
57249;SDS011;43102;52.014;-0.680;2023-02-26T05:39:00;11.10;;;5.60;;
57249;SDS011;43102;52.014;-0.680;2023-02-26T05:40:00;11.10;;;5.60;;
57249;SDS011;43102;52.014;-0.680;2023-02-26T05:41:01;11.10;;;5.60;;
57249;SDS011;43102;52.014;-0.680;2023-02-26T05:42:00;11.10;;;5.60;;
57249;SDS011;43102;52.014;-0.680;2023-02-26T05:43:00;11.10;;;5.60;;
57249;SDS011;43102;52.014;-0.680;2023-02-26T05:44:01;11.10;;;5.60;;
57249;SDS011;43102;52.014;-0.680;2023-02-26T05:45:00;11.10;;;5.60;;
57249;SDS011;43102;52.014;-0.680;2023-02-26T05:46:01;11.10;;;5.60;;
57249;SDS011;43102;52.014;-0.680;2023-02-26T05:47:01;11.10;;;5.60;;
57249;SDS011;43102;52.014;-0.680;2023-02-26T05:48:01;11.10;;;5.60;;
57249;SDS011;43102;52.014;-0.680;2023-02-26T05:49:00;11.10;;;5.60;;
57249;SDS011;43102;52.014;-0.680;2023-02-26T05:50:01;11.10;;;5.60;;
57249;SDS011;43102;52.014;-0.680;2023-02-26T05:51:01;11.10;;;5.60;;
57249;SDS011;43102;52.014;-0.680;2023-02-26T05:52:00;11.10;;;5.60;;
57249;SDS011;43102;52.014;-0.680;2023-02-26T05:53:00;11.10;;;5.60;;
57249;SDS011;43102;52.014;-0.680;2023-02-26T05:54:00;11.10;;;5.60;;
57249;SDS011;43102;52.014;-0.680;2023-02-26T05:55:01;11.10;;;5.60;;
57249;SDS011;43102;52.014;-0.680;2023-02-26T05:56:01;11.10;;;5.60;;
57249;SDS011;43102;52.014;-0.680;2023-02-26T05:57:00;11.10;;;5.60;;
57249;SDS011;43102;52.014;-0.680;2023-02-26T05:58:00;11.10;;;5.60;;
57249;SDS011;43102;52.014;-0.680;2023-02-26T05:59:01;11.10;;;5.60;;
57249;SDS011;43102;52.014;-0.680;2023-02-26T06:00:00;11.10;;;5.60;;
57249;SDS011;43102;52.014;-0.680;2023-02-26T06:01:01;11.10;;;5.60;;
57249;SDS011;43102;52.014;-0.680;2023-02-26T06:02:00;11.10;;;5.60;;
57249;SDS011;43102;52.014;-0.680;2023-02-26T06:03:01;11.10;;;5.60;;
57249;SDS011;43102;52.014;-0.680;2023-02-26T06:04:00;11.10;;;5.60;;
57249;SDS011;43102;52.014;-0.680;2023-02-26T06:05:00;11.10;;;5.60;;
57249;SDS011;43102;52.014;-0.680;2023-02-26T06:06:00;11.10;;;5.60;;
57249;SDS011;43102;52.014;-0.680;2023-02-26T06:07:01;11.10;;;5.60;;
57249;SDS011;43102;52.014;-0.680;2023-02-26T06:08:01;11.10;;;5.60;;
57249;SDS011;43102;52.014;-0.680;2023-02-26T06:09:01;13.40;;;4.10;;
57249;SDS011;43102;52.014;-0.680;2023-02-26T06:10:01;13.40;;;4.10;;
57249;SDS011;43102;52.014;-0.680;2023-02-26T06:11:00;13.40;;;4.10;;
57249;SDS011;43102;52.014;-0.680;2023-02-26T06:12:00;13.40;;;4.10;;
57249;SDS011;43102;52.014;-0.680;2023-02-26T06:13:00;13.40;;;4.10;;
57249;SDS011;43102;52.014;-0.680;2023-02-26T06:14:00;13.40;;;4.10;;
57249;SDS011;43102;52.014;-0.680;2023-02-26T06:15:01;13.40;;;4.10;;
57249;SDS011;43102;52.014;-0.680;2023-02-26T06:16:00;13.40;;;4.10;;
57249;SDS011;43102;52.014;-0.680;2023-02-26T06:17:02;13.40;;;4.10;;
57249;SDS011;43102;52.014;-0.680;2023-02-26T06:18:00;13.40;;;4.10;;
57249;SDS011;43102;52.014;-0.680;2023-02-26T06:19:01;13.40;;;4.10;;
57249;SDS011;43102;52.014;-0.680;2023-02-26T06:20:03;13.40;;;4.10;;
57249;SDS011;43102;52.014;-0.680;2023-02-26T06:21:01;13.40;;;4.10;;
57249;SDS011;43102;52.014;-0.680;2023-02-26T06:22:00;13.40;;;4.10;;
57249;SDS011;43102;52.014;-0.680;2023-02-26T06:23:00;13.40;;;4.10;;
57249;SDS011;43102;52.014;-0.680;2023-02-26T06:24:00;13.40;;;4.10;;
57249;SDS011;43102;52.014;-0.680;2023-02-26T06:25:01;13.40;;;4.10;;
57249;SDS011;43102;52.014;-0.680;2023-02-26T06:26:00;13.40;;;4.10;;
57249;SDS011;43102;52.014;-0.680;2023-02-26T06:27:00;13.40;;;4.10;;
57249;SDS011;43102;52.014;-0.680;2023-02-26T06:28:00;13.40;;;4.10;;
57249;SDS011;43102;52.014;-0.680;2023-02-26T06:29:01;13.40;;;4.10;;
57249;SDS011;43102;52.014;-0.680;2023-02-26T06:30:01;13.40;;;4.10;;
57249;SDS011;43102;52.014;-0.680;2023-02-26T06:31:01;13.40;;;4.10;;